Elwood, Utah
Current Conditions -  °F | °C
As of 7:55 AM on Monday 22 Dec 2014 (Local Time) from KBMC Reporting Station
Overcast Overcast  
Wind Chill: 35°   Ceiling: 2700
Heat Index: 39°   Visibility: 10mi
Dew Point: 34°   Wind: 6mph
Humidity: 83%   Direction: 350°N
Pressure: 30.01"   Gusts: NA
Location:  41.6836°N, 112.26°W
Report Text: KBMC 221455Z AUTO 35005KT 10SM BKN027 OVC034 04/01 A3001 RMK AO1 T00390012
Loading
Personal Weather Stations






























Interactive Weather Map New forecast layout! Learn more

10-Day Weather Forecast

Advertisements
Track Severe Weather on mobile